Time;durP1;ratioP1;P1;durP2;ratioP2;P2;SDS_P1;SDS_P2;PMS_P1;PMS_P2;Temp;Humidity;BMP_temperature;BMP_pressure;BME280_temperature;BME280_humidity;BME280_pressure;Samples;Min_cycle;Max_cycle;Signal;HPM_P1;HPM_P2
2021/06/02 00:01:52;;;;;;;7.00;4.00;;;17.20;99.90;;;;;;5097898;28;20040;-88
2021/06/02 00:04:20;;;;;;;6.90;3.72;;;17.10;99.90;;;;;;5087767;28;20063;-89
2021/06/02 00:06:48;;;;;;;6.32;3.83;;;17.10;99.90;;;;;;5087732;28;20032;-89
2021/06/02 00:09:16;;;;;;;5.35;3.50;;;17.10;99.90;;;;;;5097118;28;20047;-87
2021/06/02 00:11:42;;;;;;;6.65;3.60;;;17.00;99.90;;;;;;5097097;28;20040;-86
2021/06/02 00:14:09;;;;;;;5.32;3.80;;;17.00;99.90;;;;;;5097704;28;20061;-88
2021/06/02 00:16:34;;;;;;;5.72;3.80;;;17.00;99.90;;;;;;5097832;28;20370;-89
2021/06/02 00:19:02;;;;;;;5.38;3.47;;;17.00;99.90;;;;;;5097704;28;20035;-89
2021/06/02 00:21:28;;;;;;;7.65;3.95;;;17.00;99.90;;;;;;5084180;28;20036;-89
2021/06/02 00:23:53;;;;;;;5.68;3.67;;;17.00;99.90;;;;;;5088357;28;20050;-89
2021/06/02 00:26:20;;;;;;;8.63;4.18;;;16.90;99.90;;;;;;5097576;28;20075;-89
2021/06/02 00:28:46;;;;;;;6.47;4.10;;;16.90;99.90;;;;;;5080288;28;20081;-89
2021/06/02 00:31:14;;;;;;;7.22;4.53;;;16.90;99.90;;;;;;5097461;28;20036;-88
2021/06/02 00:33:40;;;;;;;10.57;4.40;;;16.80;99.90;;;;;;5094718;28;20035;-87
2021/06/02 00:36:09;;;;;;;7.75;4.00;;;16.80;99.90;;;;;;5096976;28;20052;-88
2021/06/02 00:38:35;;;;;;;8.65;4.20;;;16.60;99.90;;;;;;5071908;28;20454;-89
2021/06/02 00:41:03;;;;;;;5.90;4.15;;;16.40;99.90;;;;;;5080053;28;20499;-89
2021/06/02 00:43:30;;;;;;;8.10;4.05;;;16.40;99.90;;;;;;5080465;28;20135;-89
2021/06/02 00:45:56;;;;;;;5.43;3.70;;;16.50;99.90;;;;;;5080382;28;20143;-89
2021/06/02 00:48:22;;;;;;;7.07;4.20;;;16.60;99.90;;;;;;5079978;28;20086;-89
2021/06/02 00:50:49;;;;;;;6.55;4.07;;;16.70;99.90;;;;;;5080176;28;20442;-89
2021/06/02 00:53:17;;;;;;;7.68;3.65;;;16.70;99.90;;;;;;5079775;28;20036;-89
2021/06/02 00:55:44;;;;;;;6.15;3.30;;;16.70;99.90;;;;;;5098651;28;20058;-90
2021/06/02 00:58:18;;;;;;;8.00;3.67;;;16.70;99.90;;;;;;5079551;28;20036;-89
2021/06/02 01:00:44;;;;;;;7.75;4.22;;;16.80;99.90;;;;;;5098649;28;20080;-89
2021/06/02 01:03:12;;;;;;;5.55;3.92;;;16.80;99.90;;;;;;5080102;28;20498;-89
2021/06/02 01:05:38;;;;;;;6.88;3.70;;;16.80;99.90;;;;;;5080365;28;20071;-89
2021/06/02 01:08:04;;;;;;;6.95;4.00;;;16.70;99.90;;;;;;5079741;28;20058;-89
2021/06/02 01:10:33;;;;;;;6.95;3.97;;;16.60;99.90;;;;;;5098189;28;20057;-89
2021/06/02 01:12:59;;;;;;;6.07;3.80;;;16.60;99.90;;;;;;5079630;28;20090;-90
2021/06/02 01:15:26;;;;;;;7.10;4.38;;;16.50;99.90;;;;;;5098142;28;20039;-89
2021/06/02 01:17:52;;;;;;;6.32;3.83;;;16.50;99.90;;;;;;5080080;28;20048;-89
2021/06/02 01:20:19;;;;;;;6.13;4.03;;;16.50;99.90;;;;;;5079588;28;20084;-89
2021/06/02 01:22:47;;;;;;;6.43;3.47;;;16.50;99.90;;;;;;5078604;28;20496;-89
2021/06/02 01:25:15;;;;;;;5.47;3.58;;;16.50;99.90;;;;;;5078999;28;20043;-89
2021/06/02 01:27:41;;;;;;;8.82;4.20;;;16.50;99.90;;;;;;5070041;28;20090;-89
2021/06/02 01:30:10;;;;;;;6.32;3.92;;;16.50;99.90;;;;;;5059235;28;20443;-89
2021/06/02 01:32:59;;;;;;;9.00;3.80;;;16.40;99.90;;;;;;5078195;28;20070;-89
2021/06/02 01:35:40;;;;;;;9.25;4.20;;;16.40;99.90;;;;;;5097493;28;20040;-89
2021/06/02 01:38:37;;;;;;;6.32;4.10;;;16.30;99.90;;;;;;5097829;28;20086;-89
2021/06/02 01:41:19;;;;;;;5.07;3.72;;;16.30;99.90;;;;;;5079156;28;20130;-90
2021/06/02 01:44:30;;;;;;;7.38;4.03;;;16.20;99.90;;;;;;5079634;28;20594;-89
2021/06/02 01:47:32;;;;;;;7.07;4.07;;;16.20;99.90;;;;;;5079543;28;20068;-89
2021/06/02 01:50:15;;;;;;;5.38;3.42;;;16.20;99.90;;;;;;5098543;28;20101;-88
2021/06/02 01:53:11;;;;;;;7.50;3.35;;;16.20;99.90;;;;;;5078699;28;20071;-89
2021/06/02 01:56:04;;;;;;;5.55;2.80;;;16.20;99.90;;;;;;5097638;28;20044;-89
2021/06/02 01:59:04;;;;;;;4.07;2.70;;;16.20;99.90;;;;;;5097424;28;20458;-89
2021/06/02 02:01:58;;;;;;;4.90;2.67;;;16.20;99.90;;;;;;5078907;28;20185;-88
2021/06/02 02:05:02;;;;;;;6.53;2.63;;;16.10;99.90;;;;;;5079486;28;20048;-89
2021/06/02 02:07:52;;;;;;;5.63;3.75;;;16.10;99.90;;;;;;5097172;28;20061;-89
2021/06/02 02:10:35;;;;;;;6.68;3.65;;;16.10;99.90;;;;;;5096997;28;20451;-89
2021/06/02 02:13:19;;;;;;;8.50;4.10;;;16.00;99.90;;;;;;5078395;28;20454;-89
2021/06/02 02:15:59;;;;;;;6.30;4.20;;;16.00;99.90;;;;;;5065972;28;20040;-89
2021/06/02 02:18:42;;;;;;;7.00;3.70;;;16.00;99.90;;;;;;5078196;28;20051;-89
2021/06/02 02:21:11;;;;;;;5.50;3.67;;;16.00;99.90;;;;;;5078332;28;20532;-89
2021/06/02 02:23:42;;;;;;;5.43;3.30;;;16.00;99.90;;;;;;5078085;28;20468;-89
2021/06/02 02:26:23;;;;;;;5.57;4.03;;;15.80;99.90;;;;;;5096820;28;20062;-90
2021/06/02 02:29:07;;;;;;;7.90;3.97;;;15.90;99.90;;;;;;5078332;28;20036;-89
2021/06/02 02:31:46;;;;;;;6.18;3.70;;;15.80;99.90;;;;;;5077803;28;20040;-89
2021/06/02 02:34:33;;;;;;;8.73;3.90;;;15.60;99.90;;;;;;5094911;28;20036;-89
2021/06/02 02:37:04;;;;;;;8.35;3.92;;;15.50;99.90;;;;;;5093736;28;20507;-90
2021/06/02 02:39:40;;;;;;;9.73;3.85;;;15.60;99.90;;;;;;5095778;28;20052;-89
2021/06/02 02:42:08;;;;;;;5.68;3.65;;;15.70;99.90;;;;;;5077766;28;20032;-90
2021/06/02 02:44:53;;;;;;;7.68;4.05;;;15.70;99.90;;;;;;5096176;28;20381;-89
2021/06/02 02:47:26;;;;;;;5.40;3.35;;;15.70;99.90;;;;;;5096075;28;20467;-89
2021/06/02 02:50:00;;;;;;;5.90;3.80;;;15.60;99.90;;;;;;5077968;28;20047;-88
2021/06/02 02:52:46;;;;;;;6.25;3.53;;;15.50;99.90;;;;;;5096202;28;20430;-87
2021/06/02 02:55:17;;;;;;;5.78;3.58;;;15.50;99.90;;;;;;5077948;28;20043;-87
2021/06/02 02:57:46;;;;;;;6.80;3.50;;;15.40;99.90;;;;;;5095465;28;20028;-90
2021/06/02 03:00:16;;;;;;;8.40;4.00;;;15.30;99.90;;;;;;5077435;28;20076;-89
2021/06/02 03:02:46;;;;;;;6.15;3.53;;;15.30;99.90;;;;;;5096204;28;20048;-90
2021/06/02 03:05:17;;;;;;;6.47;3.60;;;15.20;99.90;;;;;;5077814;28;20047;-90
2021/06/02 03:07:49;;;;;;;6.50;3.78;;;15.10;99.90;;;;;;5095948;28;20042;-89
2021/06/02 03:10:17;;;;;;;7.90;4.13;;;15.10;99.90;;;;;;5095337;28;20386;-89
2021/06/02 03:12:52;;;;;;;6.15;3.40;;;15.00;99.90;;;;;;5095659;28;20024;-89
2021/06/02 03:15:37;;;;;;;6.55;3.80;;;14.90;99.90;;;;;;5096084;28;20047;-87
2021/06/02 03:18:18;;;;;;;4.95;3.53;;;14.80;99.90;;;;;;5077177;28;20098;-90
2021/06/02 03:20:50;;;;;;;6.38;3.88;;;14.70;99.90;;;;;;5077262;28;20138;-90
2021/06/02 03:23:44;;;;;;;5.57;3.33;;;14.70;99.90;;;;;;5095528;28;20048;-89
2021/06/02 03:26:13;;;;;;;8.55;3.95;;;14.60;99.90;;;;;;5077450;28;20488;-90
2021/06/02 03:28:51;;;;;;;8.13;3.60;;;14.50;99.90;;;;;;5077655;28;20036;-90
2021/06/02 03:31:31;;;;;;;7.20;4.05;;;14.50;99.90;;;;;;5077540;28;20377;-90
2021/06/02 03:34:13;;;;;;;7.53;4.07;;;14.40;99.90;;;;;;5095980;28;20048;-88
2021/06/02 03:36:47;;;;;;;6.40;3.70;;;14.40;99.90;;;;;;5077138;28;20101;-89
2021/06/02 03:39:18;;;;;;;5.78;3.65;;;14.40;99.90;;;;;;5095590;28;20066;-87
2021/06/02 03:41:56;;;;;;;6.47;3.88;;;14.40;99.90;;;;;;5076999;28;20143;-89
2021/06/02 03:44:36;;;;;;;5.43;3.38;;;14.30;99.90;;;;;;5094831;28;20067;-89
2021/06/02 03:47:19;;;;;;;5.35;3.80;;;14.30;99.90;;;;;;5094934;28;20040;-89
2021/06/02 03:49:55;;;;;;;7.47;4.22;;;14.30;99.90;;;;;;5095543;28;20040;-89
2021/06/02 03:52:36;;;;;;;6.57;3.28;;;14.20;99.90;;;;;;5076123;28;20039;-89
2021/06/02 03:55:07;;;;;;;5.85;3.78;;;14.20;99.90;;;;;;5076829;28;20477;-88
2021/06/02 03:57:36;;;;;;;6.60;3.65;;;14.20;99.90;;;;;;5092232;28;20365;-89
2021/06/02 04:00:11;;;;;;;8.10;3.58;;;14.10;99.90;;;;;;5091448;28;20044;-89
2021/06/02 04:02:50;;;;;;;5.63;3.90;;;14.10;99.90;;;;;;5090368;28;20047;-89
2021/06/02 04:05:24;;;;;;;8.10;4.30;;;14.10;99.90;;;;;;5072700;28;20109;-88
2021/06/02 04:08:00;;;;;;;7.80;4.30;;;14.00;99.90;;;;;;5072781;28;20078;-87
2021/06/02 04:10:35;;;;;;;6.38;4.30;;;14.10;99.90;;;;;;5091276;28;20044;-87
2021/06/02 04:13:07;;;;;;;9.48;4.05;;;14.10;99.90;;;;;;5091891;28;20446;-89
2021/06/02 04:15:36;;;;;;;5.82;3.42;;;14.10;99.90;;;;;;5073300;28;20040;-88
2021/06/02 04:18:06;;;;;;;8.93;3.78;;;14.10;99.90;;;;;;5073462;28;20040;-88
2021/06/02 04:20:32;;;;;;;8.27;4.05;;;14.10;99.90;;;;;;5073135;28;20044;-88
2021/06/02 04:23:01;;;;;;;8.70;3.83;;;16.80;99.90;;;;;;5090922;28;20044;-89
2021/06/02 04:25:28;;;;;;;5.85;3.65;;;14.10;99.90;;;;;;5072546;28;20091;-88
2021/06/02 04:27:55;;;;;;;6.15;3.90;;;14.20;99.90;;;;;;5073686;28;20040;-88
2021/06/02 04:30:25;;;;;;;6.47;3.90;;;14.20;99.90;;;;;;5073263;28;20140;-89
2021/06/02 04:32:57;;;;;;;7.53;4.30;;;14.20;99.90;;;;;;5073036;28;20549;-87
2021/06/02 04:35:25;;;;;;;7.28;3.75;;;14.20;99.90;;;;;;5093737;28;20473;-89
2021/06/02 04:37:52;;;;;;;6.45;4.25;;;14.20;99.90;;;;;;5073292;28;20059;-90
2021/06/02 04:40:18;;;;;;;5.95;3.58;;;14.30;99.90;;;;;;5075733;28;20040;-90
2021/06/02 04:42:43;;;;;;;5.97;3.67;;;14.30;99.90;;;;;;5075137;28;20113;-87
2021/06/02 04:45:15;;;;;;;6.20;3.95;;;14.30;99.90;;;;;;5076837;28;20051;-88
2021/06/02 04:47:43;;;;;;;7.57;4.25;;;14.30;99.90;;;;;;5076131;28;20067;-88
2021/06/02 04:50:14;;;;;;;6.40;4.15;;;14.30;99.90;;;;;;5076418;28;20508;-87
2021/06/02 04:53:21;;;;;;;7.68;4.25;;;14.40;99.90;;;;;;5075621;28;20825;-88
2021/06/02 04:56:08;;;;;;;6.60;3.83;;;14.50;99.90;;;;;;5076391;28;20044;-89
2021/06/02 04:59:04;;;;;;;6.55;3.65;;;14.50;99.90;;;;;;5076437;28;20036;-85
2021/06/02 05:02:10;;;;;;;6.82;3.83;;;14.50;99.90;;;;;;5078770;28;20420;-89
2021/06/02 05:05:03;;;;;;;7.82;4.25;;;14.60;99.90;;;;;;5079418;28;20048;-89
2021/06/02 05:08:21;;;;;;;5.70;3.67;;;14.70;99.90;;;;;;5079766;28;20131;-88
2021/06/02 05:11:44;;;;;;;4.47;3.35;;;14.80;99.90;;;;;;5079788;28;20035;-83
2021/06/02 05:14:48;;;;;;;9.15;3.83;;;15.00;99.90;;;;;;5097654;28;20119;-90
2021/06/02 05:17:28;;;;;;;6.38;3.42;;;15.30;99.90;;;;;;5097353;28;20047;-90
2021/06/02 05:23:48;;;;;;;7.57;3.25;;;15.70;99.90;;;;;;5092868;28;20485;-90
2021/06/02 05:26:35;;;;;;;7.63;3.35;;;15.80;99.90;;;;;;5068734;28;20043;-87
2021/06/02 05:29:27;;;;;;;4.95;3.17;;;15.90;99.90;;;;;;5079219;28;20035;-89
2021/06/02 05:32:44;;;;;;;5.25;3.45;;;16.10;99.90;;;;;;5079092;28;20067;-88
2021/06/02 05:35:49;;;;;;;5.72;2.75;;;16.30;99.90;;;;;;5053486;28;20105;-88
2021/06/02 05:38:44;;;;;;;6.10;3.03;;;16.60;99.90;;;;;;5078828;28;20060;-87
2021/06/02 05:41:17;;;;;;;6.95;2.55;;;16.80;99.90;;;;;;5078991;28;20470;-88
2021/06/02 05:44:20;;;;;;;4.40;2.78;;;17.00;99.90;;;;;;5078991;28;20412;-88
2021/06/02 05:47:25;;;;;;;5.65;2.80;;;17.20;99.90;;;;;;5094338;28;20430;-89
2021/06/02 05:50:31;;;;;;;6.07;2.60;;;17.40;99.90;;;;;;5018169;28;20455;-89
2021/06/02 05:53:34;;;;;;;5.15;2.70;;;17.40;99.90;;;;;;5017898;28;20482;-88
2021/06/02 05:56:29;;;;;;;6.82;2.80;;;17.40;99.90;;;;;;5096663;28;20040;-90
2021/06/02 05:59:11;;;;;;;8.63;2.92;;;17.50;99.90;;;;;;5097124;28;20040;-88
2021/06/02 06:01:57;;;;;;;6.68;2.83;;;17.70;99.90;;;;;;5097109;28;20040;-89
2021/06/02 06:05:06;;;;;;;5.90;3.20;;;17.90;99.90;;;;;;5078594;28;20435;-88
2021/06/02 06:08:15;;;;;;;5.30;2.80;;;18.00;99.90;;;;;;5078367;28;20131;-89
2021/06/02 06:11:12;;;;;;;5.65;2.80;;;18.20;99.90;;;;;;5071119;28;20054;-88
2021/06/02 06:14:02;;;;;;;6.53;2.67;;;18.30;99.90;;;;;;5072555;28;20144;-89
2021/06/02 06:16:57;;;;;;;6.97;2.70;;;18.20;99.90;;;;;;5049668;28;20055;-90
2021/06/02 06:19:52;;;;;;;4.55;2.70;;;18.50;99.90;;;;;;5078357;28;20040;-90
2021/06/02 06:22:46;;;;;;;4.60;2.63;;;18.60;99.90;;;;;;5078505;28;20043;-89
2021/06/02 06:25:16;;;;;;;4.75;2.22;;;18.80;99.90;;;;;;5094725;28;20549;-89
2021/06/02 06:27:49;;;;;;;6.25;2.88;;;19.10;99.90;;;;;;5096466;28;20070;-90
2021/06/02 06:30:19;;;;;;;3.35;2.22;;;20.30;99.90;;;;;;5077908;28;20044;-89
2021/06/02 06:32:48;;;;;;;5.60;2.67;;;19.40;99.90;;;;;;5096000;28;20089;-90
2021/06/02 06:35:15;;;;;;;4.45;2.53;;;19.50;99.90;;;;;;5077880;28;20043;-88
2021/06/02 06:37:45;;;;;;;4.45;2.53;;;20.00;99.90;;;;;;5096118;28;20210;-88
2021/06/02 06:40:15;;;;;;;4.57;2.47;;;18.90;99.90;;;;;;5077965;28;20044;-89
2021/06/02 06:42:43;;;;;;;5.43;2.60;;;19.00;99.90;;;;;;5078537;28;20393;-89
2021/06/02 06:45:17;;;;;;;4.93;2.60;;;19.00;99.90;;;;;;5077630;28;20032;-88
2021/06/02 06:47:45;;;;;;;5.35;2.50;;;19.10;99.90;;;;;;5077320;28;20048;-89
2021/06/02 06:50:12;;;;;;;4.57;2.47;;;19.10;99.90;;;;;;5077174;28;20039;-88
2021/06/02 06:52:41;;;;;;;5.40;2.75;;;18.80;99.90;;;;;;5077445;28;20028;-89
2021/06/02 06:55:08;;;;;;;4.75;2.40;;;18.30;99.90;;;;;;5095784;28;20036;-89
2021/06/02 06:57:35;;;;;;;6.35;2.70;;;18.40;99.90;;;;;;5076361;28;20452;-88
2021/06/02 07:00:01;;;;;;;4.65;2.42;;;18.60;99.90;;;;;;5077439;28;20083;-89
2021/06/02 07:02:29;;;;;;;5.80;2.47;;;18.60;99.90;;;;;;5096746;28;20059;-89
2021/06/02 07:04:57;;;;;;;6.25;2.83;;;18.30;99.90;;;;;;5077482;28;20040;-89
2021/06/02 07:07:24;;;;;;;3.85;2.47;;;18.20;99.90;;;;;;5095596;28;20104;-89
2021/06/02 07:09:50;;;;;;;4.28;2.28;;;18.10;99.90;;;;;;5077418;28;20546;-89
2021/06/02 07:12:19;;;;;;;7.35;2.50;;;18.10;99.90;;;;;;5096058;28;20040;-89
2021/06/02 07:14:46;;;;;;;3.60;2.20;;;18.30;99.90;;;;;;5095723;28;20044;-89
2021/06/02 07:17:13;;;;;;;4.32;2.15;;;18.50;99.90;;;;;;5077045;28;20085;-87
2021/06/02 07:19:48;;;;;;;5.18;2.45;;;19.60;99.90;;;;;;5077135;28;20538;-89
2021/06/02 07:22:19;;;;;;;6.35;2.33;;;18.30;99.90;;;;;;5077141;28;20043;-89
2021/06/02 07:24:45;;;;;;;3.75;2.22;;;18.20;99.90;;;;;;5077378;28;20419;-88
2021/06/02 07:27:10;;;;;;;4.55;2.42;;;18.00;99.90;;;;;;5076854;28;20126;-89
2021/06/02 07:29:36;;;;;;;4.35;2.17;;;18.20;99.90;;;;;;5077107;28;20135;-88
2021/06/02 07:32:02;;;;;;;4.65;2.40;;;18.30;99.90;;;;;;5096114;28;20039;-89
2021/06/02 07:34:28;;;;;;;4.70;2.50;;;18.50;99.90;;;;;;5077066;28;20040;-89
2021/06/02 07:36:55;;;;;;;4.38;2.22;;;20.60;99.90;;;;;;5076997;28;20036;-88
2021/06/02 07:39:21;;;;;;;3.25;2.25;;;18.60;99.90;;;;;;5077071;28;20093;-88
2021/06/02 07:41:47;;;;;;;4.47;2.53;;;18.50;99.70;;;;;;5093884;28;20036;-88
2021/06/02 07:44:12;;;;;;;3.72;2.20;;;18.50;99.90;;;;;;5095306;28;20085;-88
2021/06/02 07:46:38;;;;;;;4.30;2.22;;;18.70;99.90;;;;;;5095702;28;21649;-89
2021/06/02 07:49:05;;;;;;;3.97;2.45;;;18.70;99.80;;;;;;5077042;28;20106;-88
2021/06/02 07:51:31;;;;;;;4.05;2.30;;;18.80;99.90;;;;;;5076813;28;20044;-89
2021/06/02 07:53:58;;;;;;;6.75;2.70;;;19.00;99.70;;;;;;5076943;28;20128;-89
2021/06/02 07:56:24;;;;;;;7.82;2.80;;;19.10;99.20;;;;;;5095625;28;20039;-88
2021/06/02 07:58:49;;;;;;;7.60;2.47;;;19.20;99.00;;;;;;5077057;28;20051;-87
2021/06/02 08:01:15;;;;;;;5.43;2.30;;;19.30;99.80;;;;;;5095099;28;20071;-89
2021/06/02 08:03:41;;;;;;;6.30;2.60;;;19.30;99.90;;;;;;5076755;28;20044;-89
2021/06/02 08:06:07;;;;;;;4.82;3.10;;;19.40;99.10;;;;;;5077266;28;20093;-88
2021/06/02 08:08:32;;;;;;;5.22;2.38;;;19.80;98.80;;;;;;5078529;28;20130;-87
2021/06/02 08:10:59;;;;;;;9.85;3.03;;;19.60;99.50;;;;;;5082196;28;20040;-90
2021/06/02 08:13:25;;;;;;;4.70;2.92;;;19.70;98.80;;;;;;5081264;28;20040;-89
2021/06/02 08:15:51;;;;;;;6.55;2.60;;;19.80;99.60;;;;;;5098879;28;20054;-89
2021/06/02 08:18:17;;;;;;;5.18;2.70;;;19.70;99.10;;;;;;5098864;28;20050;-89
2021/06/02 08:20:42;;;;;;;5.93;2.83;;;19.90;99.20;;;;;;5081043;28;20044;-88
2021/06/02 08:23:08;;;;;;;5.78;2.88;;;21.00;98.90;;;;;;5099485;28;20040;-89
2021/06/02 08:25:34;;;;;;;4.95;2.75;;;19.80;99.20;;;;;;5080513;28;20036;-90
2021/06/02 08:28:01;;;;;;;5.90;3.20;;;19.90;99.00;;;;;;5080764;28;20032;-87
2021/06/02 08:30:27;;;;;;;6.18;3.25;;;20.90;99.40;;;;;;5098475;28;20044;-90
2021/06/02 08:32:53;;;;;;;5.18;3.10;;;20.10;99.50;;;;;;5080882;28;20032;-89
2021/06/02 08:35:18;;;;;;;7.32;2.97;;;20.10;98.70;;;;;;5099160;28;20097;-89
2021/06/02 08:37:45;;;;;;;6.43;3.20;;;20.20;98.70;;;;;;5080690;28;20040;-88
2021/06/02 08:40:12;;;;;;;6.72;3.03;;;20.30;99.00;;;;;;5080823;28;20130;-90
2021/06/02 08:42:41;;;;;;;6.40;3.35;;;20.40;99.00;;;;;;5080531;28;20036;-89
2021/06/02 08:45:10;;;;;;;5.53;2.80;;;20.60;98.20;;;;;;5080862;28;20084;-90
2021/06/02 08:47:36;;;;;;;7.70;3.00;;;20.70;98.60;;;;;;5080026;28;20400;-90
2021/06/02 08:50:02;;;;;;;7.00;2.53;;;20.80;97.80;;;;;;5080910;28;20047;-89
2021/06/02 08:52:27;;;;;;;6.32;2.97;;;20.80;98.30;;;;;;5099387;28;20396;-90
2021/06/02 08:54:55;;;;;;;5.72;3.20;;;20.90;98.00;;;;;;5080949;28;20047;-90
2021/06/02 08:57:20;;;;;;;7.25;3.22;;;21.00;98.00;;;;;;5080488;28;20508;-90
2021/06/02 08:59:46;;;;;;;4.55;2.92;;;21.10;97.80;;;;;;5099078;28;20043;-90
2021/06/02 09:02:13;;;;;;;4.88;2.65;;;21.00;98.80;;;;;;5098920;28;20063;-89
2021/06/02 09:04:39;;;;;;;4.32;2.72;;;21.00;98.30;;;;;;5080562;28;20089;-88
2021/06/02 09:07:06;;;;;;;4.60;2.90;;;21.20;98.40;;;;;;5080220;28;20040;-89
2021/06/02 09:09:33;;;;;;;5.65;2.92;;;21.30;97.40;;;;;;5080676;28;20043;-90
2021/06/02 09:12:04;;;;;;;6.55;2.88;;;21.20;99.30;;;;;;5099339;28;20036;-89
2021/06/02 09:14:31;;;;;;;5.78;2.72;;;21.30;97.70;;;;;;5080817;28;20065;-90
2021/06/02 09:16:58;;;;;;;4.93;2.83;;;21.30;97.30;;;;;;5079884;28;20093;-89
2021/06/02 09:19:39;;;;;;;6.70;3.08;;;21.30;97.90;;;;;;5098218;28;20089;-90
2021/06/02 09:22:06;;;;;;;7.47;2.80;;;21.50;97.70;;;;;;5080832;28;20500;-88
2021/06/02 09:24:50;;;;;;;7.97;3.03;;;21.70;97.70;;;;;;5080562;28;20086;-88
2021/06/02 09:27:18;;;;;;;6.50;2.95;;;21.60;98.10;;;;;;5078973;28;20039;-85
2021/06/02 09:29:55;;;;;;;8.02;3.28;;;21.80;97.70;;;;;;5079081;28;20040;-85
2021/06/02 09:32:23;;;;;;;7.13;3.15;;;22.20;97.50;;;;;;5079068;28;20404;-84
2021/06/02 09:34:59;;;;;;;6.15;3.30;;;22.30;96.50;;;;;;5078749;28;20059;-86
2021/06/02 09:37:25;;;;;;;6.82;3.20;;;22.50;96.30;;;;;;5078933;28;20054;-85
2021/06/02 09:39:50;;;;;;;5.25;2.83;;;22.60;96.50;;;;;;5078697;28;20044;-85
2021/06/02 09:42:18;;;;;;;5.57;3.13;;;22.70;97.10;;;;;;5096994;28;20136;-87
2021/06/02 09:45:00;;;;;;;9.13;3.22;;;22.80;96.30;;;;;;5078559;28;20044;-86
2021/06/02 09:47:40;;;;;;;9.65;3.63;;;22.70;96.10;;;;;;5078358;28;20066;-87
2021/06/02 09:50:09;;;;;;;5.38;2.88;;;22.80;95.90;;;;;;5096758;28;20051;-86
2021/06/02 09:52:41;;;;;;;4.55;2.88;;;23.00;95.90;;;;;;5093457;28;20125;-86
2021/06/02 09:55:12;;;;;;;6.15;3.30;;;23.20;96.00;;;;;;5108430;28;20043;-87
2021/06/02 09:57:38;;;;;;;8.00;3.35;;;23.10;95.30;;;;;;5092462;28;20523;-87
2021/06/02 10:00:05;;;;;;;9.40;3.00;;;23.10;95.50;;;;;;5092613;28;20048;-85
2021/06/02 10:02:31;;;;;;;6.07;3.38;;;23.30;95.70;;;;;;5091624;28;20044;-85
2021/06/02 10:05:01;;;;;;;5.65;3.08;;;23.30;95.70;;;;;;5092395;28;20498;-86
2021/06/02 10:07:28;;;;;;;5.97;3.33;;;23.30;95.90;;;;;;5092984;28;20036;-86
2021/06/02 10:09:54;;;;;;;7.63;2.95;;;23.20;95.60;;;;;;5108314;28;20542;-86
2021/06/02 10:12:19;;;;;;;7.03;3.58;;;25.00;96.40;;;;;;5092623;28;20028;-86
2021/06/02 10:14:54;;;;;;;6.95;3.70;;;24.00;95.80;;;;;;5092697;28;20483;-85
2021/06/02 10:17:24;;;;;;;8.13;3.92;;;23.50;96.30;;;;;;5090416;28;20484;-85
2021/06/02 10:19:50;;;;;;;6.63;3.67;;;23.30;95.30;;;;;;5092603;28;20055;-86
2021/06/02 10:22:25;;;;;;;6.72;3.30;;;23.10;95.50;;;;;;5091322;28;20098;-86
2021/06/02 10:24:54;;;;;;;6.70;3.45;;;25.00;96.30;;;;;;5091146;28;20135;-86
2021/06/02 10:27:21;;;;;;;7.35;3.30;;;23.30;95.70;;;;;;5074240;28;20044;-86
2021/06/02 10:29:48;;;;;;;4.95;2.92;;;23.50;95.90;;;;;;5091973;28;20040;-85
2021/06/02 10:32:15;;;;;;;8.23;3.33;;;23.50;95.80;;;;;;5090824;28;20141;-86
2021/06/02 10:34:41;;;;;;;5.43;3.10;;;23.70;95.90;;;;;;5073477;28;20036;-85
2021/06/02 10:37:09;;;;;;;6.45;3.30;;;23.80;95.50;;;;;;5073916;28;20044;-85
2021/06/02 10:39:36;;;;;;;7.13;3.28;;;24.00;95.90;;;;;;5090913;28;20488;-86
2021/06/02 10:42:08;;;;;;;5.97;3.58;;;24.30;95.50;;;;;;5089870;28;20356;-85
2021/06/02 10:44:38;;;;;;;5.43;2.97;;;24.60;93.80;;;;;;5073688;28;20083;-86
2021/06/02 10:47:04;;;;;;;6.43;3.60;;;26.30;94.40;;;;;;5090236;28;20036;-87
2021/06/02 10:49:34;;;;;;;5.82;3.33;;;24.80;94.40;;;;;;5092059;28;20042;-86
2021/06/02 10:52:00;;;;;;;8.90;5.10;;;24.90;94.10;;;;;;5090374;28;20036;-86
2021/06/02 10:54:34;;;;;;;11.88;5.88;;;24.80;93.50;;;;;;5073089;28;20135;-86
2021/06/02 10:57:10;;;;;;;5.95;3.40;;;24.70;95.90;;;;;;5089965;28;20055;-87
2021/06/02 10:59:37;;;;;;;6.47;3.28;;;24.80;93.30;;;;;;5091875;28;20093;-86
2021/06/02 11:02:05;;;;;;;7.60;3.13;;;24.90;93.40;;;;;;5090001;28;20046;-86
2021/06/02 11:04:31;;;;;;;7.00;3.30;;;24.90;93.60;;;;;;5089543;28;20039;-86
2021/06/02 11:07:18;;;;;;;8.40;3.38;;;24.90;92.50;;;;;;5091407;28;20481;-86
2021/06/02 11:09:58;;;;;;;6.07;3.13;;;25.10;91.80;;;;;;5090493;28;20485;-86
2021/06/02 11:12:26;;;;;;;6.90;3.25;;;25.00;94.00;;;;;;5091282;28;20032;-84
2021/06/02 11:14:53;;;;;;;5.32;3.38;;;25.00;93.40;;;;;;5090407;28;20048;-85
2021/06/02 11:17:19;;;;;;;7.97;3.47;;;24.90;93.60;;;;;;5072938;28;20129;-84
2021/06/02 11:19:51;;;;;;;8.25;3.53;;;24.70;93.00;;;;;;5073532;28;20046;-85
2021/06/02 11:22:19;;;;;;;8.57;3.20;;;24.60;93.30;;;;;;5091356;28;20392;-86
2021/06/02 11:24:50;;;;;;;5.53;3.03;;;24.60;93.20;;;;;;5073002;28;20595;-86
2021/06/02 11:27:36;;;;;;;8.30;3.28;;;24.70;94.20;;;;;;5076837;22;20056;-81
2021/06/02 11:30:19;;;;;;;5.63;2.67;;;24.90;93.00;;;;;;5031646;28;20051;-81
2021/06/02 11:32:51;;;;;;;6.88;3.15;;;25.10;93.30;;;;;;5032024;28;20033;-80
2021/06/02 11:35:16;;;;;;;4.97;2.72;;;25.20;92.60;;;;;;5031873;28;20067;-80
2021/06/02 11:37:43;;;;;;;6.47;2.92;;;25.20;91.10;;;;;;5048647;28;20045;-81
2021/06/02 11:40:11;;;;;;;5.90;2.58;;;25.30;92.00;;;;;;5049830;28;20052;-81
2021/06/02 11:42:41;;;;;;;5.03;2.72;;;25.30;93.30;;;;;;5031045;28;20037;-81
2021/06/02 11:45:09;;;;;;;4.40;2.88;;;25.50;93.30;;;;;;5048469;28;20065;-81
2021/06/02 11:47:35;;;;;;;6.70;3.55;;;25.70;92.10;;;;;;5049705;28;20386;-81
2021/06/02 11:50:03;;;;;;;6.18;3.15;;;25.80;93.50;;;;;;5030941;28;20582;-81
2021/06/02 11:52:29;;;;;;;5.85;3.45;;;25.70;92.30;;;;;;5047776;28;20041;-81
2021/06/02 11:54:58;;;;;;;6.38;3.28;;;25.50;91.10;;;;;;5048191;28;20512;-81
2021/06/02 11:57:27;;;;;;;5.05;3.35;;;25.40;92.20;;;;;;5048278;28;20041;-81
2021/06/02 11:59:55;;;;;;;4.75;2.85;;;25.30;92.60;;;;;;5048242;28;20045;-81
2021/06/02 12:02:21;;;;;;;4.25;2.78;;;25.30;91.50;;;;;;5048196;28;20043;-81
2021/06/02 12:04:46;;;;;;;3.70;2.50;;;25.30;91.90;;;;;;5049147;28;20120;-81
2021/06/02 12:07:19;;;;;;;5.97;2.08;;;25.40;91.30;;;;;;5048228;28;20488;-79
2021/06/02 12:09:49;;;;;;;4.57;2.40;;;25.50;88.10;;;;;;5048277;28;20049;-82
2021/06/02 12:12:14;;;;;;;4.70;2.38;;;25.60;88.00;;;;;;5048189;28;20159;-82
2021/06/02 12:14:40;;;;;;;6.13;2.40;;;25.70;87.30;;;;;;5049433;28;20108;-81
2021/06/02 12:17:07;;;;;;;4.03;2.25;;;25.70;89.90;;;;;;5048816;28;20400;-80
2021/06/02 12:19:34;;;;;;;4.10;2.30;;;25.70;88.10;;;;;;5064764;28;20099;-79
2021/06/02 12:22:10;;;;;;;3.25;1.92;;;25.70;85.10;;;;;;5061596;28;20041;-81
2021/06/02 12:24:36;;;;;;;3.53;2.13;;;25.80;84.80;;;;;;5039359;28;20048;-81
2021/06/02 12:27:02;;;;;;;3.20;1.92;;;25.90;83.80;;;;;;5047785;28;20052;-81
2021/06/02 12:29:32;;;;;;;2.97;1.90;;;26.00;76.10;;;;;;5048761;28;20048;-81
2021/06/02 12:31:59;;;;;;;4.28;1.92;;;26.10;78.90;;;;;;5048375;28;20037;-81
2021/06/02 12:34:36;;;;;;;5.15;2.10;;;26.20;79.90;;;;;;5047711;28;20123;-81
2021/06/02 12:37:06;;;;;;;3.92;2.25;;;26.30;82.00;;;;;;5049768;28;20064;-81
2021/06/02 12:39:33;;;;;;;4.78;2.40;;;26.30;85.90;;;;;;5049341;28;20041;-79
2021/06/02 12:42:00;;;;;;;4.55;2.30;;;26.40;84.90;;;;;;5048660;28;20068;-81
2021/06/02 12:44:27;;;;;;;3.47;1.98;;;26.40;84.20;;;;;;5049383;28;20045;-81
2021/06/02 12:47:01;;;;;;;3.30;1.80;;;26.50;87.00;;;;;;5051429;28;20047;-81
2021/06/02 12:49:29;;;;;;;3.20;1.92;;;26.50;84.20;;;;;;5051549;28;20084;-81
2021/06/02 12:51:55;;;;;;;3.95;2.58;;;26.60;79.70;;;;;;5051309;28;20072;-81
2021/06/02 12:54:22;;;;;;;3.50;2.05;;;26.70;81.30;;;;;;5052397;28;20036;-82
2021/06/02 12:56:47;;;;;;;4.55;2.08;;;26.70;82.00;;;;;;5055993;28;20072;-80
2021/06/02 12:59:13;;;;;;;3.25;1.92;;;26.80;83.10;;;;;;5055293;28;20072;-81
2021/06/02 13:01:39;;;;;;;4.22;2.33;;;26.80;74.40;;;;;;5056036;28;20045;-82
2021/06/02 13:04:05;;;;;;;3.13;2.00;;;26.80;81.90;;;;;;5055765;28;20037;-82
2021/06/02 13:06:33;;;;;;;3.55;2.20;;;26.80;81.10;;;;;;5055195;28;20033;-81
2021/06/02 13:09:06;;;;;;;3.63;2.08;;;26.80;75.10;;;;;;5054751;28;20048;-82
2021/06/02 13:11:34;;;;;;;4.25;2.10;;;26.90;81.20;;;;;;5054727;28;20135;-82
2021/06/02 13:14:01;;;;;;;6.40;2.50;;;27.20;80.70;;;;;;5054575;28;20033;-83
2021/06/02 13:16:27;;;;;;;5.50;2.20;;;27.60;80.50;;;;;;5054170;28;20448;-82
2021/06/02 13:18:55;;;;;;;3.28;1.90;;;27.90;77.60;;;;;;5056447;28;20132;-81
2021/06/02 13:21:27;;;;;;;3.17;2.28;;;28.20;79.10;;;;;;5034392;28;20041;-82
2021/06/02 13:24:05;;;;;;;4.20;2.30;;;28.40;75.60;;;;;;5035668;28;20030;-82